createdAt,value
2023-04-04T00:00:21.120Z,6.00
2023-04-04T00:02:49.517Z,5.95
2023-04-04T00:05:17.166Z,6.00
2023-04-04T00:07:47.341Z,5.95
2023-04-04T00:10:14.216Z,5.92
2023-04-04T00:12:40.989Z,5.97
2023-04-04T00:15:08.045Z,5.79
2023-04-04T00:17:34.800Z,5.97
2023-04-04T00:20:01.873Z,5.92
2023-04-04T00:22:28.523Z,6.07
2023-04-04T00:24:55.166Z,6.18
2023-04-04T00:27:21.758Z,6.08
2023-04-04T00:29:48.370Z,5.97
2023-04-04T00:32:15.164Z,5.77
2023-04-04T00:34:41.888Z,5.92
2023-04-04T00:37:12.155Z,6.14
2023-04-04T00:39:38.802Z,5.87
2023-04-04T00:42:06.345Z,5.86
2023-04-04T00:44:33.211Z,5.73
2023-04-04T00:46:59.991Z,5.71
2023-04-04T00:49:27.096Z,5.92
2023-04-04T00:51:54.544Z,5.60
2023-04-04T00:54:21.391Z,5.74
2023-04-04T00:56:48.086Z,5.90
2023-04-04T00:59:16.203Z,5.76
2023-04-04T01:01:42.886Z,5.87
2023-04-04T01:04:09.644Z,5.96
2023-04-04T01:06:36.401Z,5.79
2023-04-04T01:09:03.317Z,5.68
2023-04-04T01:11:29.969Z,5.56
2023-04-04T01:13:56.618Z,5.77
2023-04-04T01:16:24.295Z,5.55
2023-04-04T01:18:52.965Z,5.85
2023-04-04T01:21:21.962Z,5.55
2023-04-04T01:24:04.628Z,5.90
2023-04-04T01:26:31.550Z,5.84
2023-04-04T01:28:59.570Z,5.90
2023-04-04T01:31:33.897Z,5.53
2023-04-04T01:34:10.811Z,5.45
2023-04-04T01:36:54.154Z,5.48
2023-04-04T01:39:42.136Z,5.62
2023-04-04T01:42:10.094Z,5.50
2023-04-04T01:44:37.054Z,5.29
2023-04-04T01:47:07.172Z,5.62
2023-04-04T01:49:33.889Z,5.54
2023-04-04T01:52:01.034Z,5.23
2023-04-04T01:54:28.380Z,5.02
2023-04-04T01:56:55.119Z,5.38
2023-04-04T01:59:22.248Z,5.23
2023-04-04T02:01:48.971Z,5.00
2023-04-04T02:04:15.724Z,5.28
2023-04-04T02:06:42.374Z,5.26
2023-04-04T02:09:09.019Z,5.19
2023-04-04T02:11:35.688Z,5.22
2023-04-04T02:14:02.426Z,5.00
2023-04-04T02:16:29.037Z,5.27
2023-04-04T02:18:55.703Z,4.86
2023-04-04T02:21:22.615Z,5.23
2023-04-04T02:23:49.210Z,4.97
2023-04-04T02:26:15.884Z,4.84
2023-04-04T02:28:42.551Z,5.20
2023-04-04T02:31:09.220Z,5.11
2023-04-04T02:33:35.864Z,5.13
2023-04-04T02:36:02.540Z,4.87
2023-04-04T02:38:29.478Z,4.92
2023-04-04T02:40:56.129Z,4.85
2023-04-04T02:43:22.728Z,5.04
2023-04-04T02:45:49.480Z,5.31
2023-04-04T02:48:16.439Z,5.10
2023-04-04T02:50:43.333Z,5.09
2023-04-04T02:53:10.382Z,4.97
2023-04-04T02:55:37.064Z,4.70
2023-04-04T02:58:03.948Z,4.62
2023-04-04T03:00:30.872Z,4.91
2023-04-04T03:02:58.044Z,5.03
2023-04-04T03:05:25.641Z,4.73
2023-04-04T03:07:59.190Z,4.82
2023-04-04T03:10:29.840Z,5.02
2023-04-04T03:12:57.506Z,4.48
2023-04-04T03:15:24.929Z,4.99
2023-04-04T03:17:52.094Z,4.85
2023-04-04T03:20:18.893Z,4.64
2023-04-04T03:22:45.570Z,4.79
2023-04-04T03:25:12.191Z,4.69
2023-04-04T03:27:39.899Z,4.60
2023-04-04T03:30:08.483Z,4.70
2023-04-04T03:32:37.311Z,4.36
2023-04-04T03:35:04.292Z,4.07
2023-04-04T03:37:31.040Z,4.36
2023-04-04T03:39:57.742Z,4.21
2023-04-04T03:42:24.404Z,4.62
2023-04-04T03:44:51.253Z,4.11
2023-04-04T03:47:17.943Z,4.14
2023-04-04T03:49:44.579Z,4.38
2023-04-04T03:52:11.397Z,4.47
2023-04-04T03:54:38.079Z,4.06
2023-04-04T03:57:04.747Z,4.15
2023-04-04T03:59:31.565Z,4.02
2023-04-04T04:01:58.205Z,4.17
2023-04-04T04:04:24.873Z,4.17
2023-04-04T04:06:51.612Z,4.17
2023-04-04T04:09:19.146Z,4.24
2023-04-04T04:11:45.775Z,3.90
2023-04-04T04:14:13.171Z,3.99
2023-04-04T04:16:41.272Z,3.71
2023-04-04T04:19:07.950Z,4.01
2023-04-04T04:21:34.653Z,4.08
2023-04-04T04:24:01.296Z,3.85
2023-04-04T04:26:28.047Z,3.72
2023-04-04T04:28:54.781Z,3.92
2023-04-04T04:31:21.664Z,3.80
2023-04-04T04:33:48.931Z,3.90
2023-04-04T04:36:15.838Z,3.88
2023-04-04T04:38:42.918Z,3.98
2023-04-04T04:41:09.524Z,3.96
2023-04-04T04:43:37.315Z,3.99
2023-04-04T04:46:03.983Z,4.19
2023-04-04T04:48:30.656Z,3.99
2023-04-04T04:50:57.321Z,3.98
2023-04-04T04:53:23.968Z,4.09
2023-04-04T04:55:52.342Z,4.18
2023-04-04T04:58:22.642Z,4.45
2023-04-04T05:00:49.424Z,4.34
2023-04-04T05:03:16.282Z,4.06
2023-04-04T05:05:44.185Z,4.30
2023-04-04T05:08:10.801Z,4.10
2023-04-04T05:10:37.494Z,4.00
2023-04-04T05:13:04.259Z,4.14
2023-04-04T05:15:31.561Z,4.14
2023-04-04T05:17:58.541Z,4.52
2023-04-04T05:20:25.276Z,4.14
2023-04-04T05:22:51.882Z,4.45
2023-04-04T05:25:18.768Z,4.12
2023-04-04T05:27:48.898Z,4.33
2023-04-04T05:30:16.282Z,4.46
2023-04-04T05:32:45.657Z,4.42
2023-04-04T05:35:12.986Z,4.35
2023-04-04T05:37:40.681Z,4.23
2023-04-04T05:40:08.256Z,4.05
2023-04-04T05:42:34.866Z,4.04
2023-04-04T05:45:01.679Z,4.07
2023-04-04T05:47:28.327Z,4.15
2023-04-04T05:49:55.032Z,4.02
2023-04-04T05:52:21.820Z,4.26
2023-04-04T05:54:48.424Z,4.25
2023-04-04T05:57:15.321Z,4.01
2023-04-04T05:59:42.249Z,4.17
2023-04-04T06:02:08.916Z,4.41
2023-04-04T06:04:35.674Z,4.59
2023-04-04T06:07:02.555Z,4.43
2023-04-04T06:09:29.300Z,4.69
2023-04-04T06:11:56.446Z,4.72
2023-04-04T06:14:23.129Z,4.55
2023-04-04T06:16:49.940Z,5.16
2023-04-04T06:19:16.916Z,5.11
2023-04-04T06:21:43.518Z,5.35
2023-04-04T06:24:10.143Z,5.22
2023-04-04T06:26:37.834Z,5.56
2023-04-04T06:29:04.904Z,5.47
2023-04-04T06:31:31.698Z,5.34
2023-04-04T06:33:59.146Z,5.58
2023-04-04T06:36:25.757Z,5.75
2023-04-04T06:38:52.473Z,5.65
2023-04-04T06:41:19.454Z,5.56
2023-04-04T06:43:49.336Z,6.05
2023-04-04T06:46:16.262Z,6.20
2023-04-04T06:48:43.544Z,6.37
2023-04-04T06:51:11.373Z,6.09
2023-04-04T06:53:38.701Z,6.20
2023-04-04T06:56:05.900Z,6.20
2023-04-04T06:58:32.661Z,6.35
2023-04-04T07:00:59.880Z,6.31
2023-04-04T07:03:27.371Z,7.10
2023-04-04T07:05:54.052Z,7.83
2023-04-04T07:08:21.119Z,8.31
2023-04-04T07:10:47.804Z,8.62
2023-04-04T07:13:14.686Z,8.58
2023-04-04T07:15:48.863Z,9.09
2023-04-04T07:18:16.449Z,9.28
2023-04-04T07:20:43.809Z,9.79
2023-04-04T07:23:13.237Z,9.77
2023-04-04T07:25:39.813Z,10.16
2023-04-04T07:28:12.892Z,10.43
2023-04-04T07:30:40.393Z,10.60
2023-04-04T07:33:07.223Z,10.72
2023-04-04T07:35:35.370Z,10.72
2023-04-04T07:38:03.138Z,10.79
2023-04-04T07:40:29.919Z,10.83
2023-04-04T07:42:56.522Z,11.13
2023-04-04T07:45:23.489Z,11.21
2023-04-04T07:47:50.133Z,10.85
2023-04-04T07:50:16.949Z,10.44
2023-04-04T07:52:49.785Z,10.05
2023-04-04T07:55:16.895Z,9.75
2023-04-04T07:57:43.786Z,9.02
2023-04-04T08:00:11.537Z,8.92
2023-04-04T08:02:38.948Z,8.89
2023-04-04T08:05:06.354Z,8.73
2023-04-04T08:07:33.769Z,8.84
2023-04-04T08:10:00.482Z,9.01
2023-04-04T08:12:27.169Z,8.69
2023-04-04T08:14:53.804Z,8.77
2023-04-04T08:17:21.197Z,9.07
2023-04-04T08:19:47.795Z,8.76
2023-04-04T08:22:14.560Z,8.85
2023-04-04T08:24:41.267Z,9.03
2023-04-04T08:27:07.896Z,8.81
2023-04-04T08:29:34.819Z,9.53
2023-04-04T08:32:01.454Z,9.45
2023-04-04T08:34:28.760Z,8.93
2023-04-04T08:36:55.690Z,9.11
2023-04-04T08:39:22.298Z,9.62
2023-04-04T08:41:58.127Z,9.84
2023-04-04T08:44:26.251Z,10.14
2023-04-04T08:46:54.214Z,9.93
2023-04-04T08:49:24.099Z,9.98
2023-04-04T08:51:53.379Z,10.03
2023-04-04T08:54:21.090Z,9.94
2023-04-04T08:56:48.342Z,10.11
2023-04-04T08:59:19.025Z,10.04
2023-04-04T09:01:45.806Z,10.27
2023-04-04T09:04:12.561Z,10.16
2023-04-04T09:06:39.275Z,10.19
2023-04-04T09:09:07.428Z,10.36
2023-04-04T09:11:36.298Z,10.67
2023-04-04T09:14:04.737Z,10.27
2023-04-04T09:16:31.724Z,10.80
2023-04-04T09:18:58.577Z,11.11
2023-04-04T09:21:26.364Z,10.77
2023-04-04T09:24:00.937Z,10.86
2023-04-04T09:26:27.712Z,10.37
2023-04-04T09:28:55.950Z,10.92
2023-04-04T09:31:24.871Z,10.39
2023-04-04T09:33:51.706Z,9.80
2023-04-04T09:36:18.776Z,10.15
2023-04-04T09:38:46.314Z,10.90
2023-04-04T09:41:16.789Z,10.46
2023-04-04T09:43:46.940Z,10.47
2023-04-04T09:46:14.011Z,10.63
2023-04-04T09:48:41.649Z,10.81
2023-04-04T09:51:12.633Z,10.63
2023-04-04T09:53:42.208Z,11.04
2023-04-04T09:56:09.294Z,10.76
2023-04-04T09:58:36.696Z,11.68
2023-04-04T10:01:09.067Z,11.62
2023-04-04T10:03:39.114Z,11.90
2023-04-04T10:06:07.882Z,11.66
2023-04-04T10:08:37.550Z,11.62
2023-04-04T10:13:41.174Z,11.43
2023-04-04T10:16:09.077Z,11.42
2023-04-04T10:18:36.635Z,11.79
2023-04-04T10:21:15.459Z,11.76
2023-04-04T10:23:46.740Z,11.35
2023-04-04T10:26:13.772Z,11.51
2023-04-04T10:28:42.524Z,11.05
2023-04-04T10:31:25.707Z,11.20
2023-04-04T10:34:20.602Z,11.46
2023-04-04T10:36:54.282Z,11.14
2023-04-04T10:39:32.914Z,11.31
2023-04-04T10:42:01.635Z,11.66
2023-04-04T10:44:37.882Z,11.35
2023-04-04T10:47:22.163Z,10.89
2023-04-04T10:49:50.704Z,10.77
2023-04-04T10:52:23.658Z,11.28
2023-04-04T10:54:52.905Z,11.06
2023-04-04T10:57:20.131Z,10.68
2023-04-04T11:00:02.316Z,10.20
2023-04-04T11:02:48.741Z,10.58
2023-04-04T11:05:51.469Z,10.33
2023-04-04T11:08:22.500Z,10.69
2023-04-04T11:10:51.242Z,10.20
2023-04-04T11:13:29.486Z,10.83
2023-04-04T11:16:02.108Z,10.66
2023-04-04T11:21:07.357Z,10.60
2023-04-04T11:23:49.218Z,10.86
2023-04-04T11:26:42.917Z,10.60
2023-04-04T11:29:09.947Z,10.84
2023-04-04T11:31:43.273Z,10.96
2023-04-04T11:34:12.115Z,11.18
2023-04-04T11:36:43.113Z,11.20
2023-04-04T11:39:16.895Z,11.46
2023-04-04T11:42:06.875Z,11.53
2023-04-04T11:44:40.487Z,12.09
2023-04-04T11:47:07.149Z,11.91
2023-04-04T11:49:36.390Z,11.57
2023-04-04T11:52:13.797Z,11.50
2023-04-04T11:54:42.554Z,12.06
2023-04-04T11:57:12.555Z,12.11
2023-04-04T11:59:40.837Z,11.37
2023-04-04T12:02:09.388Z,11.16
2023-04-04T12:04:37.875Z,11.72
2023-04-04T12:07:07.600Z,11.42
2023-04-04T12:09:34.734Z,11.56
2023-04-04T12:12:02.015Z,11.66
2023-04-04T12:14:29.112Z,11.27
2023-04-04T12:16:57.594Z,11.58
2023-04-04T12:19:24.726Z,11.61
2023-04-04T12:21:52.602Z,11.16
2023-04-04T12:24:20.256Z,11.74
2023-04-04T12:26:50.013Z,11.74
2023-04-04T12:29:18.355Z,11.73
2023-04-04T12:31:47.000Z,11.99
2023-04-04T12:34:45.537Z,11.84
2023-04-04T12:37:18.990Z,11.56
2023-04-04T12:39:49.893Z,11.54
2023-04-04T12:42:24.833Z,11.88
2023-04-04T12:44:53.080Z,11.72
2023-04-04T12:47:24.955Z,11.60
2023-04-04T12:49:57.366Z,11.64
2023-04-04T12:52:32.106Z,11.63
2023-04-04T12:57:34.364Z,11.96
2023-04-04T13:00:02.691Z,12.07
2023-04-04T13:02:29.691Z,11.54
2023-04-04T13:04:58.753Z,11.63
2023-04-04T13:07:32.496Z,11.47
2023-04-04T13:10:04.840Z,11.05
2023-04-04T13:13:00.675Z,11.54
2023-04-04T13:15:52.871Z,11.43
2023-04-04T13:18:22.408Z,11.15
2023-04-04T13:20:49.951Z,11.34
2023-04-04T13:23:17.113Z,11.09
2023-04-04T13:25:43.927Z,11.62
2023-04-04T13:28:13.337Z,11.82
2023-04-04T13:30:43.776Z,11.60
2023-04-04T13:33:10.572Z,11.30
2023-04-04T13:35:38.408Z,11.54
2023-04-04T13:38:07.007Z,11.27
2023-04-04T13:40:33.684Z,10.78
2023-04-04T13:43:00.378Z,10.90
2023-04-04T13:45:26.970Z,11.32
2023-04-04T13:47:53.662Z,11.48
2023-04-04T13:50:21.676Z,11.71
2023-04-04T13:52:49.398Z,11.30
2023-04-04T13:55:16.920Z,10.92
2023-04-04T13:57:43.572Z,11.19
2023-04-04T14:00:10.829Z,11.38
2023-04-04T14:02:37.483Z,11.29
2023-04-04T14:05:04.579Z,11.05
2023-04-04T14:07:31.343Z,11.26
2023-04-04T14:09:58.390Z,11.10
2023-04-04T14:12:27.996Z,11.23
2023-04-04T14:14:54.623Z,11.33
2023-04-04T14:17:21.314Z,11.19
2023-04-04T14:19:47.972Z,11.58
2023-04-04T14:22:14.622Z,11.50
2023-04-04T14:24:41.382Z,11.85
2023-04-04T14:27:07.981Z,11.96
2023-04-04T14:29:34.771Z,11.65
2023-04-04T14:32:01.468Z,12.03
2023-04-04T14:34:28.143Z,11.34
2023-04-04T14:36:54.876Z,11.84
2023-04-04T14:39:21.763Z,11.79
2023-04-04T14:41:48.596Z,11.52
2023-04-04T14:44:15.431Z,11.72
2023-04-04T14:46:42.166Z,11.58
2023-04-04T14:49:09.165Z,10.89
2023-04-04T14:51:35.836Z,10.82
2023-04-04T14:54:02.517Z,10.96
2023-04-04T14:56:29.178Z,11.33
2023-04-04T14:58:57.051Z,11.25
2023-04-04T15:01:23.802Z,11.00
2023-04-04T15:03:50.466Z,11.21
2023-04-04T15:06:17.241Z,11.17
2023-04-04T15:08:44.014Z,11.18
2023-04-04T15:11:10.682Z,11.55
2023-04-04T15:13:37.445Z,11.46
2023-04-04T15:16:04.386Z,11.63
2023-04-04T15:18:31.092Z,11.63
2023-04-04T15:20:58.792Z,11.83
2023-04-04T15:23:25.596Z,11.46
2023-04-04T15:25:52.164Z,10.87
2023-04-04T15:28:18.706Z,11.64
2023-04-04T15:30:45.565Z,11.47
2023-04-04T15:33:12.466Z,11.25
2023-04-04T15:35:39.052Z,11.34
2023-04-04T15:38:05.975Z,11.24
2023-04-04T15:40:32.539Z,10.88
2023-04-04T15:42:59.105Z,11.00
2023-04-04T15:45:27.287Z,10.97
2023-04-04T15:47:53.964Z,10.81
2023-04-04T15:50:20.731Z,10.82
2023-04-04T15:52:47.406Z,10.47
2023-04-04T15:55:17.174Z,10.60
2023-04-04T15:57:44.852Z,10.36
2023-04-04T16:00:12.821Z,10.42
2023-04-04T16:02:39.591Z,10.10
2023-04-04T16:05:07.003Z,10.71
2023-04-04T16:07:33.650Z,10.61
2023-04-04T16:10:00.881Z,10.94
2023-04-04T16:12:27.484Z,11.26
2023-04-04T16:14:54.076Z,11.23
2023-04-04T16:17:20.769Z,11.21
2023-04-04T16:19:47.457Z,10.82
2023-04-04T16:22:15.358Z,11.25
2023-04-04T16:24:42.041Z,11.11
2023-04-04T16:27:08.889Z,11.02
2023-04-04T16:29:35.604Z,11.32
2023-04-04T16:32:02.247Z,10.71
2023-04-04T16:34:28.872Z,10.60
2023-04-04T16:36:55.496Z,10.99
2023-04-04T16:39:23.143Z,10.54
2023-04-04T16:41:49.799Z,10.80
2023-04-04T16:44:16.497Z,10.60
2023-04-04T16:46:43.230Z,10.54
2023-04-04T16:49:10.085Z,10.27
2023-04-04T16:51:36.857Z,10.29
2023-04-04T16:54:03.513Z,10.06
2023-04-04T16:56:30.754Z,9.89
2023-04-04T16:58:57.394Z,10.29
2023-04-04T17:01:26.265Z,9.88
2023-04-04T17:03:53.316Z,9.80
2023-04-04T17:06:19.936Z,9.78
2023-04-04T17:08:46.808Z,9.67
2023-04-04T17:11:13.773Z,10.06
2023-04-04T17:13:40.402Z,9.99
2023-04-04T17:16:08.481Z,10.26
2023-04-04T17:18:35.486Z,9.56
2023-04-04T17:21:02.170Z,9.41
2023-04-04T17:23:28.786Z,9.15
2023-04-04T17:25:55.497Z,9.79
2023-04-04T17:28:22.328Z,9.28
2023-04-04T17:30:48.963Z,9.58
2023-04-04T17:33:15.812Z,9.92
2023-04-04T17:35:42.942Z,9.50
2023-04-04T17:38:09.518Z,9.47
2023-04-04T17:40:36.520Z,9.55
2023-04-04T17:43:03.315Z,9.53
2023-04-04T17:45:30.030Z,9.63
2023-04-04T17:47:56.942Z,9.28
2023-04-04T17:50:23.856Z,9.41
2023-04-04T17:52:50.536Z,9.42
2023-04-04T17:55:18.021Z,8.89
2023-04-04T17:57:45.147Z,9.27
2023-04-04T18:00:13.394Z,9.43
2023-04-04T18:02:40.380Z,9.48
2023-04-04T18:05:09.033Z,9.32
2023-04-04T18:07:35.813Z,9.13
2023-04-04T18:10:02.489Z,9.44
2023-04-04T18:12:30.318Z,8.83
2023-04-04T18:14:57.123Z,8.74
2023-04-04T18:17:24.896Z,8.98
2023-04-04T18:19:54.817Z,9.25
2023-04-04T18:22:22.915Z,9.16
2023-04-04T18:24:49.529Z,9.10
2023-04-04T18:27:16.420Z,8.92
2023-04-04T18:29:43.094Z,8.90
2023-04-04T18:32:09.770Z,8.77
2023-04-04T18:34:36.456Z,8.55
2023-04-04T18:37:03.096Z,8.79
2023-04-04T18:39:29.774Z,8.48
2023-04-04T18:41:56.765Z,8.44
2023-04-04T18:44:23.502Z,8.56
2023-04-04T18:46:50.211Z,8.58
2023-04-04T18:49:16.857Z,8.54
2023-04-04T18:51:43.455Z,8.54
2023-04-04T18:54:10.495Z,8.54
2023-04-04T18:56:38.568Z,8.82
2023-04-04T18:59:05.603Z,8.34
2023-04-04T19:01:33.021Z,8.58
2023-04-04T19:04:03.403Z,8.38
2023-04-04T19:06:32.193Z,8.63
2023-04-04T19:09:04.246Z,8.58
2023-04-04T19:11:31.810Z,8.61
2023-04-04T19:13:58.388Z,8.55
2023-04-04T19:16:25.054Z,8.49
2023-04-04T19:18:52.200Z,8.44
2023-04-04T19:21:18.835Z,8.17
2023-04-04T19:23:45.972Z,8.46
2023-04-04T19:26:12.700Z,8.26
2023-04-04T19:28:39.307Z,8.43
2023-04-04T19:31:11.243Z,8.47
2023-04-04T19:33:38.621Z,8.43
2023-04-04T19:36:11.891Z,8.32
2023-04-04T19:38:45.429Z,8.30
2023-04-04T19:41:28.107Z,8.29
2023-04-04T19:43:54.730Z,8.06
2023-04-04T19:46:29.633Z,8.30
2023-04-04T19:48:57.862Z,8.04
2023-04-04T19:51:24.514Z,8.19
2023-04-04T19:53:53.871Z,8.12
2023-04-04T19:56:22.772Z,8.24
2023-04-04T19:59:02.059Z,8.16
2023-04-04T20:01:30.585Z,7.98
2023-04-04T20:03:58.099Z,8.02
2023-04-04T20:06:27.839Z,7.97
2023-04-04T20:09:12.909Z,8.07
2023-04-04T20:11:39.645Z,8.14
2023-04-04T20:14:08.628Z,8.22
2023-04-04T20:16:36.580Z,8.13
2023-04-04T20:19:06.873Z,8.04
2023-04-04T20:21:35.661Z,8.18
2023-04-04T20:24:08.619Z,7.97
2023-04-04T20:26:38.320Z,8.35
2023-04-04T20:29:07.338Z,8.08
2023-04-04T20:31:47.842Z,7.91
2023-04-04T20:34:46.516Z,8.32
2023-04-04T20:37:22.348Z,8.30
2023-04-04T20:39:59.953Z,8.12
2023-04-04T20:42:29.822Z,8.31
2023-04-04T20:45:02.990Z,8.30
2023-04-04T20:47:49.994Z,8.18
2023-04-04T20:50:27.352Z,8.22
2023-04-04T20:52:58.974Z,8.19
2023-04-04T20:55:27.690Z,8.39
2023-04-04T20:57:57.688Z,8.26
2023-04-04T21:00:31.557Z,8.32
2023-04-04T21:03:23.226Z,8.27
2023-04-04T21:05:49.862Z,8.30
2023-04-04T21:08:19.624Z,8.43
2023-04-04T21:10:51.007Z,8.12
2023-04-04T21:13:27.878Z,8.35
2023-04-04T21:16:03.090Z,8.34
2023-04-04T21:18:34.052Z,8.23
2023-04-04T21:21:07.829Z,8.27
2023-04-04T21:23:47.128Z,8.21
2023-04-04T21:26:33.325Z,8.31
2023-04-04T21:29:21.688Z,8.31
2023-04-04T21:31:51.103Z,8.27
2023-04-04T21:34:27.620Z,8.37
2023-04-04T21:37:01.398Z,8.52
2023-04-04T21:39:29.856Z,8.55
2023-04-04T21:41:58.690Z,8.55
2023-04-04T21:44:26.209Z,8.30
2023-04-04T21:46:55.304Z,8.64
2023-04-04T21:49:22.523Z,8.50
2023-04-04T21:51:49.405Z,8.35
2023-04-04T21:54:16.191Z,8.52
2023-04-04T21:56:43.088Z,8.55
2023-04-04T21:59:10.340Z,8.69
2023-04-04T22:01:38.115Z,8.53
2023-04-04T22:04:05.061Z,8.50
2023-04-04T22:06:31.805Z,8.43
2023-04-04T22:09:01.846Z,8.44
2023-04-04T22:11:29.156Z,8.45
2023-04-04T22:14:07.243Z,8.22
2023-04-04T22:16:39.005Z,8.57
2023-04-04T22:19:07.436Z,8.61
2023-04-04T22:21:37.189Z,8.59
2023-04-04T22:24:06.353Z,8.53
2023-04-04T22:26:33.638Z,8.54
2023-04-04T22:29:03.089Z,8.64
2023-04-04T22:31:30.448Z,8.59
2023-04-04T22:33:57.175Z,8.46
2023-04-04T22:36:26.270Z,8.34
2023-04-04T22:38:59.034Z,8.69
2023-04-04T22:41:29.823Z,8.17
2023-04-04T22:43:57.695Z,8.60
2023-04-04T22:46:26.025Z,8.38
2023-04-04T22:48:55.494Z,8.35
2023-04-04T22:51:22.676Z,8.40
2023-04-04T22:53:49.303Z,8.29
2023-04-04T22:56:16.042Z,8.15
2023-04-04T22:58:42.747Z,8.11
2023-04-04T23:01:09.451Z,8.22
2023-04-04T23:03:36.089Z,8.18
2023-04-04T23:06:02.688Z,8.10
2023-04-04T23:08:29.338Z,7.98
2023-04-04T23:10:56.282Z,8.07
2023-04-04T23:13:23.029Z,7.91
2023-04-04T23:15:49.742Z,8.06
2023-04-04T23:18:16.420Z,7.88
2023-04-04T23:20:43.560Z,7.78
2023-04-04T23:23:10.491Z,8.07
2023-04-04T23:25:37.106Z,7.92
2023-04-04T23:28:03.740Z,7.79
2023-04-04T23:30:30.405Z,7.78
2023-04-04T23:32:57.115Z,8.07
2023-04-04T23:35:23.774Z,7.93
2023-04-04T23:37:50.481Z,8.03
2023-04-04T23:40:17.408Z,7.67
2023-04-04T23:42:44.018Z,7.82
2023-04-04T23:45:11.692Z,8.13
2023-04-04T23:47:38.457Z,8.07
2023-04-04T23:50:05.629Z,8.01
2023-04-04T23:52:32.375Z,7.40
2023-04-04T23:54:59.012Z,7.72
2023-04-04T23:57:25.710Z,8.02
2023-04-04T23:59:52.315Z,7.68
